Time;durP1;ratioP1;P1;durP2;ratioP2;P2;SDS_P1;SDS_P2;PMS_P1;PMS_P2;Temp;Humidity;BMP_temperature;BMP_pressure;BME280_temperature;BME280_humidity;BME280_pressure;Samples;Min_cycle;Max_cycle;Signal;HPM_P1;HPM_P2
2022/07/19 00:00:14;;;;;;;4.42;2.85;;;;;;;19.70;56.50;101437.11;1698043;84;21426;-76
2022/07/19 00:02:41;;;;;;;3.45;3.15;;;;;;;19.70;56.60;101432.71;1697590;84;21398;-76
2022/07/19 00:05:10;;;;;;;6.80;3.12;;;;;;;19.72;56.64;101428.72;1697872;84;20909;-76
2022/07/19 00:07:38;;;;;;;5.92;3.27;;;;;;;19.70;56.74;101426.16;1712661;83;21383;-76
2022/07/19 00:10:07;;;;;;;9.98;3.80;;;;;;;19.68;56.82;101424.51;1713380;81;27255;-76
2022/07/19 00:12:34;;;;;;;6.37;3.90;;;;;;;19.63;56.89;101421.22;1697464;84;20926;-77
2022/07/19 00:15:01;;;;;;;4.22;3.10;;;;;;;19.59;56.99;101427.05;1697725;84;21399;-77
2022/07/19 00:17:27;;;;;;;3.55;3.15;;;;;;;19.56;57.08;101423.23;1697750;84;20917;-76
2022/07/19 00:19:52;;;;;;;4.33;3.20;;;;;;;19.55;57.16;101423.30;1697807;83;20893;-76
2022/07/19 00:22:18;;;;;;;5.57;3.70;;;;;;;19.53;57.25;101423.81;1697973;83;20929;-76
2022/07/19 00:24:44;;;;;;;4.50;3.30;;;;;;;19.50;57.34;101420.36;1697796;83;20968;-76
2022/07/19 00:27:12;;;;;;;4.45;3.10;;;;;;;19.50;57.41;101427.38;1701397;81;21473;-76
2022/07/19 00:29:38;;;;;;;3.98;3.25;;;;;;;19.49;57.53;101421.28;1737098;82;21375;-76
2022/07/19 00:32:05;;;;;;;3.50;3.07;;;;;;;19.50;57.59;101423.45;1737722;82;20977;-76
2022/07/19 00:34:31;;;;;;;;;;;;;;;19.51;57.64;101423.87;1739902;81;21400;-76
2022/07/19 00:36:57;;;;;;;5.20;3.30;;;;;;;19.50;58.00;101423.45;1737795;82;20748;-76
2022/07/19 00:39:24;;;;;;;4.10;3.17;;;;;;;19.50;57.65;101427.38;1736539;82;21045;-76
2022/07/19 00:41:50;;;;;;;4.10;3.50;;;;;;;19.48;57.74;101423.97;1735829;82;21601;-76
2022/07/19 00:44:16;;;;;;;4.07;3.67;;;;;;;19.49;57.97;101417.80;1726693;82;21509;-76
2022/07/19 00:46:43;;;;;;;4.83;3.40;;;;;;;19.49;57.97;101417.80;1735535;82;21971;-76
2022/07/19 00:49:09;;;;;;;3.70;2.80;;;;;;;19.49;57.96;101420.42;1735955;82;20943;-76
2022/07/19 00:51:40;;;;;;;5.50;3.03;;;;;;;19.47;58.07;101415.70;1735952;82;20978;-76
2022/07/19 00:54:11;;;;;;;4.33;2.70;;;;;;;19.45;58.11;101407.03;1735958;82;21009;-76
2022/07/19 00:56:38;;;;;;;4.53;3.10;;;;;;;19.42;58.21;101408.47;1736385;82;20959;-76
2022/07/19 00:59:06;;;;;;;9.35;2.87;;;;;;;19.41;58.30;101405.45;1735639;82;28648;-76
2022/07/19 01:01:33;;;;;;;4.72;3.20;;;;;;;19.42;58.34;101411.09;1731646;82;21046;-76
2022/07/19 01:04:00;;;;;;;4.40;3.12;;;;;;;19.42;58.39;101408.02;1735458;82;20970;-76
2022/07/19 01:06:26;;;;;;;4.50;3.33;;;;;;;19.38;58.47;101410.81;1730620;82;21053;-76
2022/07/19 01:08:53;;;;;;;3.40;3.10;;;;;;;19.35;58.55;101410.94;1735770;82;21025;-76
2022/07/19 01:11:19;;;;;;;7.58;3.55;;;;;;;19.35;58.64;101407.00;1735625;82;21545;-76
2022/07/19 01:13:46;;;;;;;4.83;3.40;;;;;;;19.35;58.64;101409.17;1736115;82;21062;-76
2022/07/19 01:16:12;;;;;;;4.10;3.22;;;;;;;19.34;58.71;101406.61;1711251;83;21360;-76
2022/07/19 01:18:37;;;;;;;6.63;3.53;;;;;;;19.33;58.78;101412.31;1721627;82;20879;-76
2022/07/19 01:21:04;;;;;;;5.20;3.60;;;;;;;19.30;58.83;101404.56;1737811;82;20942;-76
2022/07/19 01:23:30;;;;;;;;;;;;;;;19.29;58.90;101405.48;1740161;82;20867;-76
2022/07/19 01:25:57;;;;;;;4.25;3.22;;;;;;;19.27;59.29;101412.55;1738045;81;20105;-76
2022/07/19 01:28:23;;;;;;;4.53;3.10;;;;;;;19.25;58.99;101411.76;1737349;81;21502;-77
2022/07/19 01:30:50;;;;;;;3.83;3.52;;;;;;;19.27;58.99;101407.30;1735087;82;20918;-77
2022/07/19 01:33:17;;;;;;;3.62;3.33;;;;;;;19.25;59.04;101397.80;1736145;82;20903;-76
2022/07/19 01:35:43;;;;;;;;;;;;;;;19.24;59.11;101400.02;1740097;82;20883;-76
2022/07/19 01:38:09;;;;;;;3.90;3.43;;;;;;;19.23;59.35;101394.41;1704550;84;20471;-76
2022/07/19 01:40:37;;;;;;;4.00;3.25;;;;;;;19.22;59.18;101396.63;1698596;84;20904;-76
2022/07/19 01:43:03;;;;;;;6.15;3.90;;;;;;;19.19;59.28;101402.85;1705998;83;20954;-76
2022/07/19 01:45:31;;;;;;;4.93;3.60;;;;;;;19.18;59.36;101404.62;1733774;81;20950;-77
2022/07/19 01:47:57;;;;;;;3.98;3.17;;;;;;;19.16;59.44;101401.66;1731957;82;21118;-77
2022/07/19 01:50:23;;;;;;;6.42;3.60;;;;;;;19.13;59.49;101402.63;1735917;82;21958;-77
2022/07/19 01:52:49;;;;;;;6.17;3.90;;;;;;;19.13;59.53;101400.01;1735327;82;21058;-77
2022/07/19 01:55:15;;;;;;;6.13;3.10;;;;;;;19.12;59.58;101406.63;1732643;82;21301;-77
2022/07/19 01:57:41;;;;;;;5.70;3.63;;;;;;;19.08;59.64;101399.79;1735605;82;21307;-77
2022/07/19 02:00:09;;;;;;;4.83;3.52;;;;;;;19.06;59.68;101395.06;1735860;82;21625;-77
2022/07/19 02:02:35;;;;;;;7.15;3.35;;;;;;;19.05;59.74;101392.05;1737199;82;20958;-77
2022/07/19 02:05:01;;;;;;;4.85;3.42;;;;;;;19.01;59.79;101388.69;1735687;82;20986;-77
2022/07/19 02:07:27;;;;;;;6.08;3.60;;;;;;;18.98;59.83;101389.26;1735643;82;21046;-77
2022/07/19 02:09:57;;;;;;;4.63;3.37;;;;;;;18.94;59.88;101390.29;1735666;82;21038;-77
2022/07/19 02:12:23;;;;;;;3.50;3.20;;;;;;;18.91;59.89;101384.70;1729185;82;22169;-77
2022/07/19 02:14:49;;;;;;;5.80;3.87;;;;;;;18.86;59.92;101387.95;1725193;82;20944;-77
2022/07/19 02:17:14;;;;;;;5.07;3.73;;;;;;;18.82;59.96;101391.61;1734200;82;20867;-77
2022/07/19 02:19:41;;;;;;;5.22;3.87;;;;;;;18.78;60.01;101395.25;1737440;82;20883;-76
2022/07/19 02:22:07;;;;;;;4.17;3.77;;;;;;;18.72;60.02;101393.72;1737771;82;20903;-77
2022/07/19 02:24:33;;;;;;;4.10;3.60;;;;;;;18.66;60.09;101397.91;1737382;82;20910;-77
2022/07/19 02:26:58;;;;;;;6.83;3.75;;;;;;;18.61;60.10;101395.05;1737732;82;20879;-77
2022/07/19 02:29:25;;;;;;;3.57;3.27;;;;;;;18.56;60.15;101400.88;1744634;81;20867;-77
2022/07/19 02:31:51;;;;;;;5.23;3.33;;;;;;;18.50;60.19;101401.50;1745747;81;20927;-77
2022/07/19 02:34:16;;;;;;;4.47;3.70;;;;;;;18.44;60.22;101401.72;1745496;82;21454;-77
2022/07/19 02:36:42;;;;;;;5.27;2.87;;;;;;;18.40;60.23;101399.27;1742859;82;22809;-77
2022/07/19 02:39:09;;;;;;;3.63;3.13;;;;;;;18.35;60.28;101403.36;1746210;82;20927;-77
2022/07/19 02:41:35;;;;;;;2.90;2.60;;;;;;;18.28;60.32;101400.56;1745844;81;20902;-77
2022/07/19 02:44:01;;;;;;;3.30;2.97;;;;;;;18.24;60.33;101400.72;1742499;82;22774;-77
2022/07/19 02:46:27;;;;;;;3.60;2.90;;;;;;;18.16;60.39;101391.41;1714718;82;20911;-77
2022/07/19 02:48:53;;;;;;;4.15;3.27;;;;;;;18.10;60.47;101392.06;1744745;82;20934;-77
2022/07/19 02:51:19;;;;;;;5.33;3.00;;;;;;;18.04;60.52;101392.28;1746219;82;21607;-77
2022/07/19 02:53:45;;;;;;;3.50;3.13;;;;;;;17.98;60.58;101392.03;1745751;82;20875;-77
2022/07/19 02:56:11;;;;;;;4.08;3.58;;;;;;;17.92;60.63;101390.94;1745812;82;21230;-77
2022/07/19 02:58:37;;;;;;;4.28;3.30;;;;;;;17.89;60.74;101398.89;1732925;82;20905;-77
2022/07/19 03:01:06;;;;;;;3.67;3.37;;;;;;;17.87;60.79;101398.08;1745104;82;20966;-77
2022/07/19 03:03:43;;;;;;;4.22;3.33;;;;;;;17.82;60.81;101390.39;1744325;82;21112;-77
2022/07/19 03:06:12;;;;;;;4.95;3.45;;;;;;;17.77;60.87;101397.53;1743363;82;21010;-77
2022/07/19 03:08:41;;;;;;;3.90;3.00;;;;;;;17.72;60.96;101398.14;1743976;82;21018;-77
2022/07/19 03:11:07;;;;;;;4.37;3.97;;;;;;;17.70;61.03;101392.55;1744151;82;21021;-77
2022/07/19 03:13:34;;;;;;;3.75;3.35;;;;;;;17.68;61.07;101395.22;1744316;82;21461;-77
2022/07/19 03:16:00;;;;;;;6.20;3.63;;;;;;;17.63;61.14;101393.20;1744421;82;21065;-77
2022/07/19 03:18:26;;;;;;;3.47;3.17;;;;;;;17.61;61.20;101395.02;1743806;82;21085;-77
2022/07/19 03:20:52;;;;;;;3.90;3.50;;;;;;;17.62;61.28;101389.33;1744168;82;21991;-77
2022/07/19 03:23:17;;;;;;;6.20;3.40;;;;;;;17.61;61.33;101391.09;1744210;82;20918;-77
2022/07/19 03:25:43;;;;;;;4.63;4.20;;;;;;;17.61;61.37;101396.77;1744294;82;20883;-77
2022/07/19 03:28:09;;;;;;;4.33;3.93;;;;;;;17.61;61.45;101396.77;1743260;81;21035;-77
2022/07/19 03:30:35;;;;;;;3.70;3.30;;;;;;;17.62;61.51;101393.25;1735635;82;21069;-77
2022/07/19 03:33:04;;;;;;;5.15;3.75;;;;;;;17.64;61.55;101384.91;1735365;82;21125;-77
2022/07/19 03:35:30;;;;;;;5.17;4.03;;;;;;;17.62;61.62;101388.88;1735814;82;26529;-77
2022/07/19 03:37:56;;;;;;;3.97;3.57;;;;;;;17.62;61.69;101391.50;1735983;82;20974;-76
2022/07/19 03:40:22;;;;;;;5.50;3.93;;;;;;;17.62;61.78;101392.80;1735860;82;21005;-76
2022/07/19 03:42:48;;;;;;;5.55;4.50;;;;;;;17.61;61.81;101385.86;1735834;82;21014;-76
2022/07/19 03:45:15;;;;;;;4.53;3.58;;;;;;;17.61;61.91;101391.55;1735366;81;21101;-76
2022/07/19 03:47:41;;;;;;;4.90;4.13;;;;;;;17.59;61.96;101381.13;1735874;82;20898;-76
2022/07/19 03:50:07;;;;;;;4.83;4.40;;;;;;;17.55;62.03;101386.06;1713277;82;21647;-76
2022/07/19 03:52:34;;;;;;;4.95;4.45;;;;;;;17.54;62.12;101384.35;1735185;82;21042;-76
2022/07/19 03:55:00;;;;;;;5.10;4.47;;;;;;;17.54;62.21;101384.35;1736134;81;21086;-77
2022/07/19 03:57:26;;;;;;;5.77;4.37;;;;;;;17.53;62.25;101384.80;1735815;82;21057;-76
2022/07/19 03:59:52;;;;;;;5.70;5.10;;;;;;;17.57;62.31;101384.70;1735420;82;21039;-76
2022/07/19 04:02:18;;;;;;;4.40;4.00;;;;;;;17.58;62.34;101378.12;1735697;82;21311;-77
2022/07/19 04:04:44;;;;;;;6.35;3.65;;;;;;;17.60;62.36;101384.16;1734307;82;21064;-76
2022/07/19 04:07:12;;;;;;;4.42;4.00;;;;;;;17.58;62.37;101383.34;1730334;81;21058;-76
2022/07/19 04:09:38;;;;;;;6.47;5.47;;;;;;;17.54;62.44;101379.13;1734813;82;22489;-76
2022/07/19 04:12:04;;;;;;;7.70;3.90;;;;;;;17.52;62.50;101385.70;1731106;81;21090;-76
2022/07/19 04:14:34;;;;;;;4.30;3.85;;;;;;;17.50;62.54;101382.73;1728179;81;21085;-76
2022/07/19 04:17:00;;;;;;;4.43;3.90;;;;;;;17.48;62.62;101379.32;1734046;82;21052;-76
2022/07/19 04:19:25;;;;;;;7.77;3.43;;;;;;;17.48;62.62;101372.33;1735986;82;21956;-76
2022/07/19 04:21:51;;;;;;;3.27;2.97;;;;;;;17.46;62.71;101374.14;1736047;82;21084;-76
2022/07/19 04:24:25;;;;;;;3.90;3.50;;;;;;;17.44;62.73;101365.94;1735298;82;32519;-77
2022/07/19 04:26:52;;;;;;;3.60;3.30;;;;;;;17.42;62.80;101372.53;1736372;82;21081;-77
2022/07/19 04:29:18;;;;;;;6.07;4.83;;;;;;;17.45;62.86;101373.73;1736088;81;21053;-77
2022/07/19 04:31:44;;;;;;;4.70;3.83;;;;;;;17.48;62.89;101376.70;1736138;81;21096;-77
2022/07/19 04:34:10;;;;;;;5.17;4.28;;;;;;;17.48;62.90;101377.56;1732929;82;21023;-76
2022/07/19 04:36:36;;;;;;;3.75;3.42;;;;;;;17.46;62.99;101380.67;1735828;82;21042;-76
2022/07/19 04:39:03;;;;;;;4.12;3.65;;;;;;;17.47;63.06;101379.77;1735723;82;21066;-76
2022/07/19 04:41:29;;;;;;;4.92;3.80;;;;;;;17.51;63.13;101383.14;1735507;81;21045;-76
2022/07/19 04:43:55;;;;;;;4.17;3.77;;;;;;;17.54;63.17;101383.90;1717184;82;21069;-76
2022/07/19 04:46:21;;;;;;;5.53;4.27;;;;;;;17.59;63.22;101380.28;1735647;82;20978;-77
2022/07/19 04:48:47;;;;;;;5.47;4.20;;;;;;;17.65;63.26;101378.35;1736057;82;21041;-76
2022/07/19 04:51:13;;;;;;;4.60;4.03;;;;;;;17.73;63.31;101376.76;1735538;82;21381;-76
2022/07/19 04:53:39;;;;;;;5.17;4.10;;;;;;;17.76;63.32;101377.51;1736027;82;26735;-76
2022/07/19 04:56:05;;;;;;;5.13;4.33;;;;;;;17.81;63.43;101384.75;1735732;82;21077;-77
2022/07/19 04:58:33;;;;;;;4.85;4.22;;;;;;;17.83;63.50;101382.94;1736086;81;21463;-77
2022/07/19 05:00:58;;;;;;;5.10;4.30;;;;;;;17.89;63.59;101387.11;1735707;82;21478;-77
2022/07/19 05:03:24;;;;;;;4.43;4.00;;;;;;;17.96;63.64;101390.38;1723299;82;20907;-77
2022/07/19 05:05:50;;;;;;;4.83;3.80;;;;;;;18.06;63.68;101390.02;1736083;82;20985;-77
2022/07/19 05:08:17;;;;;;;7.50;4.30;;;;;;;18.14;63.67;101393.67;1735624;82;21021;-77
2022/07/19 05:10:43;;;;;;;4.95;4.53;;;;;;;18.22;63.76;101390.75;1735882;82;20938;-77
2022/07/19 05:13:11;;;;;;;7.08;5.28;;;;;;;18.35;63.78;101393.34;1735061;82;21047;-76
2022/07/19 05:15:37;;;;;;;6.78;4.67;;;;;;;18.51;63.83;101387.95;1729754;80;21029;-76
2022/07/19 05:18:03;;;;;;;5.97;4.70;;;;;;;18.89;63.97;101387.84;1727635;81;21525;-76
2022/07/19 05:20:44;;;;;;;13.58;5.78;;;;;;;19.42;63.91;101384.86;1734499;80;21090;-76
2022/07/19 05:23:10;;;;;;;4.90;4.50;;;;;;;20.08;63.80;101386.91;1728009;81;21085;-76
2022/07/19 05:25:36;;;;;;;6.00;4.87;;;;;;;20.63;63.65;101382.71;1731441;80;21077;-77
2022/07/19 05:28:04;;;;;;;8.30;4.83;;;;;;;21.15;63.52;101379.80;1734135;81;21498;-77
2022/07/19 05:30:31;;;;;;;6.67;4.95;;;;;;;21.75;63.44;101377.73;1743528;81;20933;-77
2022/07/19 05:32:57;;;;;;;4.78;4.20;;;;;;;22.33;63.30;101382.64;1744374;82;21009;-77
2022/07/19 05:35:23;;;;;;;7.40;4.75;;;;;;;22.91;63.10;101387.86;1743864;80;21081;-77
2022/07/19 05:37:50;;;;;;;6.67;4.47;;;;;;;23.44;62.84;101380.39;1740800;81;21050;-77
2022/07/19 05:40:16;;;;;;;5.35;4.58;;;;;;;23.93;62.63;101385.45;1744003;82;21070;-77
2022/07/19 05:42:42;;;;;;;11.67;4.63;;;;;;;24.46;62.42;101385.80;1751965;81;21132;-77
2022/07/19 05:45:10;;;;;;;6.40;4.30;;;;;;;24.92;62.17;101383.77;1744253;82;20894;-77
2022/07/19 05:47:35;;;;;;;5.47;4.62;;;;;;;25.39;61.96;101388.17;1744081;82;21116;-77
2022/07/19 05:50:02;;;;;;;9.30;4.33;;;;;;;25.92;61.67;101383.75;1744474;82;20921;-77
2022/07/19 05:52:28;;;;;;;6.87;4.17;;;;;;;26.34;61.32;101382.61;1742362;80;21061;-77
2022/07/19 05:54:54;;;;;;;5.20;4.42;;;;;;;26.76;61.01;101379.65;1740397;80;21069;-77
2022/07/19 05:57:20;;;;;;;7.45;4.58;;;;;;;27.10;60.58;101390.02;1718679;82;21037;-77
2022/07/19 05:59:46;;;;;;;8.93;4.65;;;;;;;27.42;60.23;101383.18;1725487;82;21045;-77
2022/07/19 06:02:12;;;;;;;6.23;3.80;;;;;;;27.70;59.84;101383.29;1743754;82;20895;-77
2022/07/19 06:04:40;;;;;;;4.97;4.37;;;;;;;27.98;59.41;101386.03;1740361;80;21497;-78
2022/07/19 06:07:06;;;;;;;6.78;4.30;;;;;;;28.24;58.99;101394.17;1728703;80;24092;-77
2022/07/19 06:09:33;;;;;;;8.23;5.00;;;;;;;28.50;58.52;101392.61;1743181;82;21055;-77
2022/07/19 06:11:59;;;;;;;5.12;4.12;;;;;;;28.91;57.53;101390.65;1736318;82;21067;-77
2022/07/19 06:14:25;;;;;;;5.83;5.08;;;;;;;28.91;57.53;101390.65;1743818;81;21069;-77
2022/07/19 06:16:53;;;;;;;9.43;3.65;;;;;;;29.11;57.27;101391.70;1742890;80;21100;-77
2022/07/19 06:19:19;;;;;;;7.28;4.58;;;;;;;29.39;56.73;101384.43;1731236;82;21046;-77
2022/07/19 06:21:45;;;;;;;4.50;3.75;;;;;;;29.60;56.17;101386.67;1743803;82;21056;-77
2022/07/19 06:24:16;;;;;;;4.30;3.47;;;;;;;29.82;55.82;101382.17;1743580;81;21087;-77
2022/07/19 06:26:42;;;;;;;4.35;3.67;;;;;;;30.07;55.22;101384.96;1743686;80;21013;-77
2022/07/19 06:29:08;;;;;;;5.03;3.80;;;;;;;30.28;54.86;101382.59;1738416;80;21009;-77
2022/07/19 06:31:34;;;;;;;4.00;3.20;;;;;;;30.49;54.30;101387.88;1727278;82;21053;-77
2022/07/19 06:34:00;;;;;;;7.10;3.75;;;;;;;30.71;53.87;101388.17;1727975;82;20954;-77
2022/07/19 06:36:27;;;;;;;5.42;3.80;;;;;;;30.94;53.32;101390.13;1732918;82;21085;-78
2022/07/19 06:38:53;;;;;;;6.75;3.75;;;;;;;31.22;52.78;101393.34;1727333;82;28190;-77
2022/07/19 06:41:20;;;;;;;9.15;4.53;;;;;;;31.48;52.17;101388.79;1719271;82;21013;-77
2022/07/19 06:43:46;;;;;;;7.97;4.60;;;;;;;31.65;51.58;101385.89;1729418;82;21005;-77
2022/07/19 06:46:13;;;;;;;7.12;4.47;;;;;;;31.82;51.16;101387.36;1734616;82;20970;-77
2022/07/19 06:48:39;;;;;;;6.53;3.62;;;;;;;31.98;50.68;101386.77;1734488;82;21050;-77
2022/07/19 06:51:07;;;;;;;3.83;3.45;;;;;;;32.21;50.00;101389.45;1733130;82;21093;-78
2022/07/19 06:53:33;;;;;;;5.97;3.33;;;;;;;32.39;49.58;101386.84;1725194;82;21036;-78
2022/07/19 06:55:59;;;;;;;4.83;4.28;;;;;;;32.58;48.86;101386.77;1732406;81;21048;-78
2022/07/19 06:58:25;;;;;;;8.38;3.27;;;;;;;32.77;48.57;101382.30;1724642;82;21502;-78
2022/07/19 07:00:51;;;;;;;3.65;3.12;;;;;;;32.97;48.10;101383.02;1725517;82;20985;-78
2022/07/19 07:03:18;;;;;;;7.62;2.92;;;;;;;33.26;47.56;101386.34;1735070;82;20934;-78
2022/07/19 07:05:45;;;;;;;3.50;3.20;;;;;;;33.59;46.88;101379.94;1733197;82;21026;-78
2022/07/19 07:08:11;;;;;;;;;;;;;;;33.80;46.26;101380.44;1737035;82;21042;-78
2022/07/19 07:10:39;;;;;;;4.17;2.83;;;;;;;33.94;46.17;101381.70;1734124;82;20821;-78
2022/07/19 07:13:05;;;;;;;5.15;3.45;;;;;;;34.00;45.53;101379.23;1725219;82;21545;-78
2022/07/19 07:15:31;;;;;;;3.67;2.95;;;;;;;34.06;44.87;101380.44;1732439;81;21057;-76
2022/07/19 07:17:58;;;;;;;4.35;3.02;;;;;;;34.17;44.49;101381.02;1727803;82;21533;-75
2022/07/19 07:20:24;;;;;;;6.55;3.15;;;;;;;34.26;44.01;101378.38;1735086;82;21443;-75
2022/07/19 07:22:50;;;;;;;4.55;2.85;;;;;;;34.53;43.70;101380.36;1727342;82;21029;-75
2022/07/19 07:25:16;;;;;;;5.15;3.20;;;;;;;34.95;43.17;101378.14;1733856;82;21612;-75
2022/07/19 07:27:43;;;;;;;8.75;3.75;;;;;;;35.41;42.75;101372.66;1735573;82;21022;-75
2022/07/19 07:30:10;;;;;;;6.53;3.77;;;;;;;35.76;42.25;101374.16;1733518;81;21523;-75
2022/07/19 07:32:36;;;;;;;3.90;3.15;;;;;;;36.01;41.76;101378.16;1716815;81;21055;-75
2022/07/19 07:35:04;;;;;;;3.60;2.85;;;;;;;36.27;41.27;101377.95;1695576;82;21494;-75
2022/07/19 07:37:30;;;;;;;6.08;2.70;;;;;;;36.53;40.56;101377.65;1733341;82;21486;-75
2022/07/19 07:39:57;;;;;;;3.10;2.80;;;;;;;36.64;40.12;101378.61;1733927;82;21068;-75
2022/07/19 07:42:24;;;;;;;4.35;2.60;;;;;;;36.78;39.59;101378.73;1733927;82;20974;-75
2022/07/19 07:44:51;;;;;;;7.08;3.08;;;;;;;36.74;38.99;101383.30;1732879;82;21061;-75
2022/07/19 07:47:18;;;;;;;4.30;2.80;;;;;;;36.77;38.39;101373.01;1715433;81;21546;-75
2022/07/19 07:49:44;;;;;;;3.10;2.52;;;;;;;36.86;37.72;101377.01;1731676;82;21517;-75
2022/07/19 07:52:10;;;;;;;5.17;2.25;;;;;;;36.86;36.99;101372.45;1725731;82;21421;-75
2022/07/19 07:54:36;;;;;;;7.22;2.67;;;;;;;36.63;36.57;101374.23;1735896;82;21530;-75
2022/07/19 07:57:03;;;;;;;5.00;2.42;;;;;;;36.45;36.20;101376.67;1728366;81;27356;-76
2022/07/19 07:59:29;;;;;;;4.33;2.02;;;;;;;36.45;35.81;101371.78;1727760;81;21050;-75
2022/07/19 08:01:55;;;;;;;6.25;2.35;;;;;;;36.33;35.08;101374.05;1733797;82;21513;-75
2022/07/19 08:04:21;;;;;;;4.53;2.40;;;;;;;36.27;34.90;101372.05;1731479;82;21001;-75
2022/07/19 08:06:47;;;;;;;;;;;;;;;36.45;34.57;101367.75;1732990;81;21509;-75
2022/07/19 08:09:13;;;;;;;4.80;2.22;;;;;;;36.51;34.47;101367.05;1730920;82;20812;-75
2022/07/19 08:11:48;;;;;;;2.65;2.20;;;;;;;36.68;33.96;101365.11;1738025;80;21045;-74
2022/07/19 08:14:14;;;;;;;5.08;2.27;;;;;;;36.80;33.59;101363.73;1727977;82;28000;-75
2022/07/19 08:16:40;;;;;;;1.80;1.67;;;;;;;36.94;33.12;101358.89;1734002;82;21467;-74
2022/07/19 08:19:07;;;;;;;4.50;1.67;;;;;;;36.97;32.52;101337.47;1731941;82;21498;-73
2022/07/19 08:21:33;;;;;;;3.15;2.12;;;;;;;36.97;32.52;101337.47;1732514;82;21037;-74
2022/07/19 08:23:59;;;;;;;3.90;2.20;;;;;;;37.12;31.97;101362.65;1724919;82;21481;-74
2022/07/19 08:26:25;;;;;;;2.40;2.17;;;;;;;37.11;31.62;101359.63;1727402;81;20978;-74
2022/07/19 08:28:51;;;;;;;7.40;1.95;;;;;;;37.27;31.47;101353.30;1732833;82;21081;-74
2022/07/19 08:31:17;;;;;;;6.87;2.15;;;;;;;37.55;31.23;101357.07;1730323;80;21577;-75
2022/07/19 08:33:44;;;;;;;7.42;2.45;;;;;;;37.83;30.75;101357.34;1730844;81;21049;-74
2022/07/19 08:36:11;;;;;;;4.45;2.30;;;;;;;37.98;30.31;101358.16;1721682;81;21033;-74
2022/07/19 08:38:38;;;;;;;;;;;;;;;38.10;29.96;101359.88;1716885;82;20883;-74
2022/07/19 08:41:05;;;;;;;2.22;2.00;;;;;;;38.21;30.13;101359.45;1719894;81;20213;-74
2022/07/19 08:43:32;;;;;;;3.65;2.15;;;;;;;38.23;29.79;101352.50;1731623;82;21065;-74
2022/07/19 08:46:01;;;;;;;5.70;2.30;;;;;;;38.17;29.64;101355.95;1735526;82;21502;-74
2022/07/19 08:48:36;;;;;;;2.90;2.55;;;;;;;38.25;29.49;101350.45;1737342;82;20935;-74
2022/07/19 08:51:04;;;;;;;2.47;2.08;;;;;;;38.26;29.08;101348.08;1736877;82;20884;-74
2022/07/19 08:53:32;;;;;;;2.37;1.98;;;;;;;38.16;29.09;101339.42;1730578;80;21388;-74
2022/07/19 08:56:00;;;;;;;2.92;2.40;;;;;;;38.03;28.35;101338.18;1731398;80;20970;-74
2022/07/19 08:58:27;;;;;;;3.45;1.92;;;;;;;37.72;28.39;101334.84;1735871;80;20919;-74
2022/07/19 09:00:53;;;;;;;5.60;2.22;;;;;;;37.40;28.06;101342.73;1730529;82;20886;-74
2022/07/19 09:03:19;;;;;;;;;;;;;;;36.99;27.87;101341.67;1736697;81;20926;-74
2022/07/19 09:05:45;;;;;;;5.67;2.52;;;;;;;36.66;28.11;101343.73;1730232;81;20282;-74
2022/07/19 09:08:17;;;;;;;7.15;2.70;;;;;;;36.22;27.57;101340.73;1735497;81;20978;-74
2022/07/19 09:13:31;;;;;;;4.85;2.55;;;;;;;35.29;27.13;101333.66;1734573;82;21100;-74
2022/07/19 09:15:57;;;;;;;;;;;;;;;34.85;27.14;101323.19;1733651;82;21054;-74
2022/07/19 09:18:29;;;;;;;3.22;2.27;;;;;;;34.54;27.34;101319.41;1721895;82;20201;-74
2022/07/19 09:21:05;;;;;;;2.30;2.10;;;;;;;34.22;27.15;101322.81;1728234;82;20938;-74
2022/07/19 09:23:33;;;;;;;7.37;2.27;;;;;;;33.96;26.94;101321.50;1735498;82;20895;-74
2022/07/19 09:26:03;;;;;;;2.87;2.40;;;;;;;33.67;26.92;101319.64;1730931;81;20913;-73
2022/07/19 09:28:35;;;;;;;2.55;1.95;;;;;;;33.41;26.83;101327.66;1726828;81;20859;-73
2022/07/19 09:31:04;;;;;;;3.72;2.27;;;;;;;33.11;26.82;101323.54;1731901;82;21392;-73
2022/07/19 09:33:32;;;;;;;4.15;2.35;;;;;;;32.81;26.58;101316.71;1727828;82;20910;-73
2022/07/19 09:36:03;;;;;;;2.80;2.50;;;;;;;32.50;26.62;101314.86;1727867;82;20902;-73
2022/07/19 09:38:37;;;;;;;7.40;2.65;;;;;;;32.07;26.37;101323.51;1733414;82;20914;-73
2022/07/19 09:41:18;;;;;;;7.20;3.42;;;;;;;31.73;26.42;101320.02;1728436;81;20981;-73
2022/07/19 09:44:01;;;;;;;3.92;2.42;;;;;;;31.48;26.62;101319.28;1732333;82;20898;-73
2022/07/19 09:46:37;;;;;;;6.20;1.90;;;;;;;31.42;26.66;101317.17;1727419;82;21014;-73
2022/07/19 09:49:09;;;;;;;3.77;2.27;;;;;;;31.39;26.75;101318.80;1727610;82;20903;-73
2022/07/19 09:51:39;;;;;;;5.72;2.00;;;;;;;31.42;26.86;101322.52;1732028;81;21079;-73
2022/07/19 09:54:08;;;;;;;5.50;2.27;;;;;;;31.39;26.81;101318.30;1709533;83;21017;-73
2022/07/19 09:56:39;;;;;;;4.20;2.35;;;;;;;31.36;26.85;101315.07;1711798;82;21469;-73
2022/07/19 09:59:06;;;;;;;2.62;2.10;;;;;;;31.34;26.92;101308.53;1728569;82;21092;-74
2022/07/19 10:01:34;;;;;;;5.25;2.02;;;;;;;31.34;26.99;101306.34;1725488;82;21069;-73
2022/07/19 10:04:13;;;;;;;4.62;2.27;;;;;;;31.31;26.92;101310.15;1726387;82;21081;-73
2022/07/19 10:06:41;;;;;;;4.30;2.17;;;;;;;31.21;26.95;101306.64;1732555;81;21503;-73
2022/07/19 10:09:10;;;;;;;4.35;1.87;;;;;;;31.18;27.02;101305.13;1733753;81;21369;-73
2022/07/19 10:11:38;;;;;;;6.42;2.17;;;;;;;31.17;27.07;101298.58;1721100;81;20986;-74
2022/07/19 10:14:04;;;;;;;6.30;2.17;;;;;;;31.16;27.12;101300.91;1722386;82;21097;-73
2022/07/19 10:17:00;;;;;;;3.17;2.02;;;;;;;31.14;27.07;101298.86;1733913;81;21527;-73
2022/07/19 10:19:45;;;;;;;3.80;1.90;;;;;;;31.05;27.14;101299.67;1726093;82;21485;-75
2022/07/19 10:22:19;;;;;;;7.37;2.20;;;;;;;30.93;27.04;101292.28;1729918;81;21065;-76
2022/07/19 10:25:05;;;;;;;3.75;2.15;;;;;;;30.77;27.10;101290.65;1726973;82;21462;-76
2022/07/19 10:27:36;;;;;;;6.25;2.12;;;;;;;30.78;27.21;101288.33;1731624;81;20946;-76
2022/07/19 10:30:11;;;;;;;2.70;2.40;;;;;;;30.78;27.21;101285.17;1735466;82;20938;-76
2022/07/19 10:32:42;;;;;;;4.00;2.00;;;;;;;30.82;27.27;101285.73;1730423;81;20902;-76
2022/07/19 10:35:29;;;;;;;2.92;1.95;;;;;;;30.88;27.33;101286.03;1712298;81;115384;-76
2022/07/19 10:38:04;;;;;;;2.72;1.85;;;;;;;30.94;27.25;101296.16;1686893;84;20980;-76
2022/07/19 10:40:46;;;;;;;3.62;2.22;;;;;;;30.95;27.26;101285.82;1695466;84;20911;-76
2022/07/19 10:43:20;;;;;;;4.45;2.52;;;;;;;30.95;27.30;101275.62;1674225;84;20964;-76
2022/07/19 10:46:03;;;;;;;3.77;2.95;;;;;;;30.97;27.32;101268.81;1694931;84;21644;-77
2022/07/19 10:48:40;;;;;;;4.72;2.90;;;;;;;31.03;27.37;101274.44;1688863;84;21082;-77
2022/07/19 10:51:11;;;;;;;5.90;2.67;;;;;;;31.05;27.36;101268.45;1690675;83;20982;-77
2022/07/19 10:53:48;;;;;;;2.85;2.08;;;;;;;31.04;27.37;101259.25;1689188;84;21122;-77
2022/07/19 10:56:27;;;;;;;4.55;2.47;;;;;;;31.01;27.29;101261.70;1694736;84;21157;-76
2022/07/19 10:59:02;;;;;;;4.10;2.60;;;;;;;30.92;27.21;101260.72;1696577;83;20962;-76
2022/07/19 11:01:39;;;;;;;2.22;2.02;;;;;;;30.89;27.34;101254.81;1707600;82;21109;-76
2022/07/19 11:04:32;;;;;;;6.08;3.15;;;;;;;30.90;27.29;101255.17;1671864;84;21165;-76
2022/07/19 11:07:20;;;;;;;4.05;2.90;;;;;;;30.81;27.28;101248.00;1694920;84;21362;-76
2022/07/19 11:09:54;;;;;;;2.70;2.17;;;;;;;30.80;27.38;101247.64;1695610;84;21069;-76
2022/07/19 11:12:34;;;;;;;4.95;2.30;;;;;;;30.89;27.41;101256.16;1690638;83;21065;-76
2022/07/19 11:15:09;;;;;;;3.42;2.37;;;;;;;30.98;27.40;101255.80;1668946;84;21066;-76
2022/07/19 11:17:38;;;;;;;3.17;2.25;;;;;;;31.05;27.40;101249.76;1695123;84;21101;-76
2022/07/19 11:20:15;;;;;;;6.90;2.37;;;;;;;31.09;27.38;101244.48;1694956;84;21081;-76
2022/07/19 11:22:46;;;;;;;3.17;2.20;;;;;;;31.09;27.40;101242.30;1696887;84;20957;-76
2022/07/19 11:25:15;;;;;;;5.85;2.47;;;;;;;31.11;27.35;101239.84;1696738;84;20918;-76
2022/07/19 11:27:44;;;;;;;5.87;2.27;;;;;;;31.12;27.40;101239.34;1701108;82;20962;-76
2022/07/19 11:30:12;;;;;;;7.80;2.37;;;;;;;31.16;27.53;101243.45;1696741;84;20927;-76
2022/07/19 11:32:44;;;;;;;6.20;2.25;;;;;;;31.22;27.37;101248.20;1700485;83;20899;-76